Flight Track Log - Related Links

Times and Time Zones

All times are in EDT time to prevent confusion due to time zone crossing. See the N2107D flight status page for this flight to view local times or setup timezone preferences in your user account.


Time Position Orientation Groundspeed Altitude Reporting Facility
EDT Latitude Longitude Course Direction KTS MPH feet Rate Location/Type
Sun 11:09:00 AM 26.5333 -78.8810 270° West  Level FlightAware Approximate
Sun 11:15:05 AM 26.5017 -78.9669 270° West 100 115 5,200  Level Miami Center
Sun 11:16:05 AM 26.4950 -78.9947 255° West 100 115 5,500 300 Climbing Miami Center
Sun 11:17:05 AM 26.4925 -79.0200 264° West 100 115 5,800 300 Climbing Miami Center
Sun 11:18:05 AM 26.4839 -79.0456 249° West 95 109 6,100 150 Climbing Miami Center
Sun 11:19:05 AM 26.4772 -79.0778 257° West 95 109 6,100 -50 Level Miami Center
Sun 11:20:05 AM 26.4744 -79.1125 265° West 107 123 6,000 -50 Descending Miami Center
Sun 11:21:05 AM 26.4719 -79.1475 265° West 113 130 6,000  Level Miami Center
Sun 11:22:05 AM 26.4756 -79.1847 276° West 113 130 6,000  Level Miami Center
Sun 11:23:05 AM 26.4728 -79.2194 265° West 118 136 6,000 -50 Level Miami Center
Sun 11:24:05 AM 26.4619 -79.2517 249° West 118 136 5,900 -50 Descending Miami Center
Sun 11:25:05 AM 26.4653 -79.2889 276° West 118 136 5,900 50 Level Miami Center
Sun 11:26:05 AM 26.4692 -79.3144 280° West 112 129 6,000 50 Climbing Miami Center
Sun 11:27:05 AM 26.4728 -79.3517 276° West 107 123 6,000 50 Level Miami Center
Sun 11:28:05 AM 26.4722 -79.3842 269° West 107 123 6,100  Climbing Miami Center
Sun 11:29:05 AM 26.4756 -79.4214 276° West 107 123 6,000 -50 Descending Miami Center
Sun 11:30:05 AM 26.4772 -79.4517 274° West 107 123 6,000 -50 Level Miami Center
Sun 11:31:05 AM 26.4808 -79.4911 276° West 107 123 5,900  Descending Miami Center
Sun 11:32:05 AM 26.4719 -79.5189 250° West 107 123 6,000 50 Climbing Miami Center
Sun 11:33:05 AM 26.4506 -79.5439 226° Southwest 107 123 6,000 50 Level Miami Center
Sun 11:34:05 AM 26.4294 -79.5594 213° Southwest 107 123 6,100 56 Climbing Miami Center
Sun 11:34:53 AM 26.4122 -79.5825 230° Southwest 104 120 6,100  Level Miami Center
Sun 11:35:42 AM 26.3950 -79.6053 230° Southwest 109 125 6,100  Level Miami Center
Sun 11:36:43 AM 26.3694 -79.6256 215° Southwest 109 125 6,100 -233 Level Miami Center
Sun 11:37:51 AM 26.3439 -79.6550 226° Southwest 112 129 5,600 -359 Descending Miami Center
Sun 11:38:40 AM 26.3331 -79.6778 242° Southwest 112 129 5,400 -362 Descending Miami Center
Sun 11:39:47 AM 26.3056 -79.6981 213° Southwest 108 124 4,900 -563 Descending Miami Center
Sun 11:40:48 AM 26.2803 -79.7092 202° Southwest 104 120 4,200 -821 Descending Miami Center
Sun 11:41:44 AM 26.2528 -79.7269 210° Southwest 114 131 3,300 -769 Descending Miami Center
Sun 11:42:45 AM 26.2294 -79.7425 211° Southwest 104 120 2,700 -443 Descending Miami Center
Sun 11:43:46 AM 26.2042 -79.7606 213° Southwest 108 124 2,400 -295 Descending Miami Center
Sun 11:44:47 AM 26.1786 -79.7853 221° Southwest 106 122 2,100 -148 Descending Miami Center
Sun 11:45:48 AM 26.1553 -79.8011 211° Southwest 104 120 2,100 49 Level Miami Center
Sun 11:46:50 AM 26.1297 -79.8167 209° Southwest 97 112 2,200 88 Climbing Miami Center
Sun 11:48:05 AM 26.1064 -79.8367 218° Southwest 107 123 2,300 52 Climbing Miami Center
Sun 11:48:46 AM 26.0894 -79.8547 224° Southwest 110 127 2,300  Level Miami Center
Sun 11:49:47 AM 26.0681 -79.8797 226° Southwest 105 121 2,300  Level Miami Center
Sun 11:50:54 AM 26.0425 -79.8978 212° Southwest 105 121 2,300 -43 Level Miami Center
Sun 11:52:05 AM 26.0150 -79.9153 210° Southwest 107 123 2,200 -98 Descending Miami Center
Sun 11:52:56 AM 25.9875 -79.9333 211° Southwest 108 124 2,100 -53 Descending Miami Center
Sun 11:53:58 AM 25.9661 -79.9533 220° Southwest 106 122 2,100 -49 Level Miami Center
Sun 11:54:59 AM 25.9489 -79.9831 237° Southwest 112 129 2,000 -47 Descending Miami Center
Sun 11:56:05 AM 25.9397 -80.0150 252° West 112 129 2,000 48 Level Miami Center
Sun 11:57:05 AM 25.9369 -80.0519 265° West 118 136 2,100  Climbing Miami Center
Sun 11:58:05 AM 25.9339 -80.0889 265° West 124 143 2,000 -96 Descending Miami Center
Sun 11:59:10 AM 25.9308 -80.1350 266° West 123 142 1,900 -100 Descending Miami Center
Sun 12:00:05 PM 25.9303 -80.1628 269° West 124 143 1,800 -52 Descending Miami Center
Sun 12:01:05 PM 25.9314 -80.1997 272° West 124 143 1,800 -100 Level Miami Center
Sun 12:02:05 PM 25.9306 -80.2367 269° West 124 143 1,600 -200 Descending Miami Center
Sun 12:03:05 PM 25.9297 -80.2758 269° West 124 143 1,400 -100 Descending Miami Center
Sun 12:04:05 PM 25.9311 -80.3106 273° West 124 143 1,400  Level Miami Center
Sun 12:05:05 PM 25.9322 -80.3475 272° West 124 143 1,400  Level Miami Center
Sun 12:06:05 PM 25.9092 -80.3517 189° South 79 91 1,400 -250 Level Miami Center
Sun 12:07:05 PM 25.9100 -80.3192 88° East 35 40 900 -600 Descending Miami Center
Sun 12:08:05 PM 25.9083 -80.2961 95° East 62 71 200 1,300 Descending Miami Center
Sun 12:09:05 PM 25.9025 -80.2775 109° East 62 71 3,500 3,300 Climbing Miami Center

Login

Don't have an account? Register now (free) for customized features, flight alerts, and more!